Time;durP1;ratioP1;P1;durP2;ratioP2;P2;SDS_P1;SDS_P2;PMS_P1;PMS_P2;Temp;Humidity;BMP_temperature;BMP_pressure;BME280_temperature;BME280_humidity;BME280_pressure;Samples;Min_cycle;Max_cycle;Signal;HPM_P1;HPM_P2
2022/03/24 00:00:20;;;;;;;10.75;6.65;;;10.20;49.40;;;;;;2063072;28;20130;-87
2022/03/24 00:01:21;;;;;;;12.43;7.45;;;10.10;49.40;;;;;;2069862;28;20496;-87
2022/03/24 00:02:22;;;;;;;11.00;7.82;;;10.10;50.10;;;;;;2072809;28;20029;-86
2022/03/24 00:03:22;;;;;;;10.80;7.22;;;10.10;49.60;;;;;;2070671;28;20038;-86
2022/03/24 00:04:23;;;;;;;10.43;7.15;;;10.10;49.60;;;;;;2065503;28;20405;-87
2022/03/24 00:05:24;;;;;;;10.80;7.35;;;10.10;49.70;;;;;;2065305;28;20165;-86
2022/03/24 00:06:24;;;;;;;10.15;6.85;;;10.10;49.80;;;;;;2055971;28;20027;-86
2022/03/24 00:07:25;;;;;;;11.43;7.40;;;10.00;49.80;;;;;;2056449;28;20039;-87
2022/03/24 00:08:26;;;;;;;10.27;7.13;;;10.00;49.90;;;;;;2055359;28;20041;-86
2022/03/24 00:09:26;;;;;;;11.32;7.05;;;10.00;49.90;;;;;;2062756;28;20030;-86
2022/03/24 00:10:27;;;;;;;10.65;7.07;;;10.00;50.00;;;;;;2072984;28;20026;-86
2022/03/24 00:11:27;;;;;;;11.45;7.05;;;9.90;50.00;;;;;;2074120;28;20034;-86
2022/03/24 00:12:28;;;;;;;11.35;7.35;;;9.90;50.00;;;;;;2071450;28;20018;-87
2022/03/24 00:13:29;;;;;;;12.05;7.70;;;9.90;50.00;;;;;;2057388;28;20041;-86
2022/03/24 00:14:29;;;;;;;10.65;7.40;;;9.90;50.00;;;;;;2057341;28;20069;-86
2022/03/24 00:15:30;;;;;;;10.32;7.05;;;9.90;50.10;;;;;;2065317;28;20122;-86
2022/03/24 00:16:31;;;;;;;11.48;7.40;;;9.90;50.10;;;;;;2056424;28;20030;-86
2022/03/24 00:17:32;;;;;;;11.07;7.15;;;9.90;50.10;;;;;;2065256;28;20050;-86
2022/03/24 00:18:34;;;;;;;11.73;7.32;;;9.90;50.20;;;;;;2072694;28;20202;-86
2022/03/24 00:19:35;;;;;;;12.32;7.50;;;9.90;50.20;;;;;;2073005;28;20084;-86
2022/03/24 00:20:37;;;;;;;10.10;6.90;;;9.90;50.20;;;;;;2073333;28;20523;-86
2022/03/24 00:21:37;;;;;;;10.40;7.18;;;9.80;50.20;;;;;;2072936;28;20437;-86
2022/03/24 00:22:39;;;;;;;10.10;6.85;;;9.80;50.30;;;;;;2073071;28;20022;-86
2022/03/24 00:23:40;;;;;;;9.68;6.57;;;9.80;50.90;;;;;;2072998;28;20176;-86
2022/03/24 00:24:42;;;;;;;10.80;7.18;;;9.80;50.40;;;;;;2064144;28;20134;-86
2022/03/24 00:25:42;;;;;;;11.45;6.53;;;9.80;50.40;;;;;;2057435;28;20042;-86
2022/03/24 00:26:43;;;;;;;11.18;7.45;;;9.70;50.40;;;;;;2063074;28;20130;-86
2022/03/24 00:27:44;;;;;;;10.02;6.47;;;9.70;50.40;;;;;;2057236;28;20082;-86
2022/03/24 00:28:45;;;;;;;11.73;7.13;;;9.70;50.50;;;;;;2061118;28;20528;-86
2022/03/24 00:29:45;;;;;;;11.30;7.43;;;9.70;50.50;;;;;;2073036;28;20068;-87
2022/03/24 00:30:46;;;;;;;9.98;6.53;;;9.60;50.50;;;;;;2074038;28;20034;-86
2022/03/24 00:31:47;;;;;;;10.63;6.90;;;9.60;50.50;;;;;;2073476;28;20507;-86
2022/03/24 00:32:47;;;;;;;11.77;7.13;;;9.60;50.50;;;;;;2075994;28;20522;-86
2022/03/24 00:33:48;;;;;;;11.40;7.10;;;9.60;50.50;;;;;;2065353;28;20045;-87
2022/03/24 00:34:49;;;;;;;11.43;7.57;;;9.60;50.50;;;;;;2065107;28;20081;-86
2022/03/24 00:35:50;;;;;;;11.30;7.38;;;9.50;50.50;;;;;;2065994;28;20121;-87
2022/03/24 00:36:51;;;;;;;11.52;7.00;;;9.50;50.50;;;;;;2069534;28;20030;-86
2022/03/24 00:37:51;;;;;;;12.52;7.30;;;9.50;50.50;;;;;;2073347;28;20030;-86
2022/03/24 00:38:53;;;;;;;10.77;6.97;;;9.50;50.50;;;;;;2062584;28;20030;-86
2022/03/24 00:39:54;;;;;;;9.88;6.93;;;9.50;50.50;;;;;;2061869;28;20034;-86
2022/03/24 00:40:55;;;;;;;10.98;6.82;;;9.40;50.40;;;;;;2063170;28;20038;-86
2022/03/24 00:41:56;;;;;;;11.75;7.13;;;9.40;50.40;;;;;;2061760;28;20405;-86
2022/03/24 00:42:59;;;;;;;10.35;7.07;;;9.40;50.40;;;;;;2070415;28;20034;-86
2022/03/24 00:44:03;;;;;;;10.70;7.03;;;9.40;50.50;;;;;;2073313;28;20497;-86
2022/03/24 00:45:06;;;;;;;10.07;6.72;;;9.30;50.50;;;;;;2073217;28;20038;-87
2022/03/24 00:46:06;;;;;;;9.77;6.65;;;9.30;50.60;;;;;;2073035;28;20053;-87
2022/03/24 00:47:08;;;;;;;11.30;7.30;;;9.30;50.60;;;;;;2072469;28;20084;-86
2022/03/24 00:48:09;;;;;;;9.55;6.80;;;9.20;50.60;;;;;;2073655;28;20036;-85
2022/03/24 00:49:10;;;;;;;11.60;7.30;;;9.20;50.70;;;;;;2073180;28;20111;-85
2022/03/24 00:50:12;;;;;;;12.38;7.43;;;9.20;50.70;;;;;;2073099;28;20076;-84
2022/03/24 00:51:12;;;;;;;11.23;6.72;;;9.20;50.80;;;;;;2074056;28;20030;-85
2022/03/24 00:52:13;;;;;;;10.10;6.75;;;9.20;50.90;;;;;;2072791;28;20452;-84
2022/03/24 00:53:15;;;;;;;12.45;7.18;;;9.20;50.90;;;;;;2064660;28;20034;-84
2022/03/24 00:54:18;;;;;;;10.25;7.15;;;9.10;50.90;;;;;;2041521;28;20218;-85
2022/03/24 00:55:20;;;;;;;11.63;7.13;;;9.10;50.90;;;;;;2057976;28;20035;-85
2022/03/24 00:56:21;;;;;;;10.65;6.78;;;9.10;51.00;;;;;;2063661;28;20018;-85
2022/03/24 00:57:22;;;;;;;10.82;6.43;;;9.10;51.00;;;;;;2064778;28;20113;-85
2022/03/24 00:58:22;;;;;;;11.77;6.78;;;9.10;51.00;;;;;;2065250;28;20026;-84
2022/03/24 00:59:23;;;;;;;9.93;6.68;;;9.10;51.10;;;;;;2064583;28;20124;-85
2022/03/24 01:00:25;;;;;;;11.10;7.15;;;9.10;51.10;;;;;;2071889;28;20370;-84
2022/03/24 01:01:26;;;;;;;9.88;6.40;;;9.10;51.20;;;;;;2079951;28;20050;-84
2022/03/24 01:02:28;;;;;;;10.68;7.13;;;9.00;51.20;;;;;;2055675;28;20089;-84
2022/03/24 01:03:29;;;;;;;9.10;6.15;;;9.10;51.30;;;;;;2048796;28;20031;-84
2022/03/24 01:04:30;;;;;;;11.00;6.80;;;9.10;51.40;;;;;;2049105;28;20067;-84
2022/03/24 01:05:30;;;;;;;9.98;6.75;;;9.10;51.40;;;;;;2066343;28;20121;-84
2022/03/24 01:06:31;;;;;;;9.80;6.50;;;9.10;51.40;;;;;;2056947;28;20038;-84
2022/03/24 01:07:32;;;;;;;12.90;7.20;;;9.10;51.40;;;;;;2063076;28;20030;-85
2022/03/24 01:08:34;;;;;;;11.65;6.28;;;9.10;51.40;;;;;;2072976;28;20026;-84
2022/03/24 01:09:34;;;;;;;12.50;6.88;;;9.10;51.50;;;;;;2057062;28;20027;-84
2022/03/24 01:10:36;;;;;;;9.27;6.45;;;9.10;51.50;;;;;;2063477;28;20081;-84
2022/03/24 01:11:37;;;;;;;12.18;7.00;;;9.10;51.60;;;;;;2072532;28;20026;-84
2022/03/24 01:12:39;;;;;;;10.77;6.80;;;9.10;51.60;;;;;;2064647;28;20053;-84
2022/03/24 01:13:41;;;;;;;10.25;6.53;;;9.10;51.70;;;;;;2063972;28;20027;-84
2022/03/24 01:14:41;;;;;;;9.85;6.38;;;9.00;51.60;;;;;;2056778;28;20549;-84
2022/03/24 01:15:45;;;;;;;10.43;6.55;;;9.10;51.70;;;;;;2056979;28;20035;-85
2022/03/24 01:16:46;;;;;;;11.18;7.15;;;9.10;51.80;;;;;;2064773;28;20074;-84
2022/03/24 01:17:47;;;;;;;11.70;7.30;;;9.00;51.80;;;;;;2070470;28;20041;-85
2022/03/24 01:18:48;;;;;;;10.02;6.32;;;9.10;51.80;;;;;;2073657;28;20029;-85
2022/03/24 01:19:49;;;;;;;10.07;6.47;;;9.10;51.90;;;;;;2064734;28;20062;-84
2022/03/24 01:20:50;;;;;;;11.13;6.70;;;9.10;52.00;;;;;;2055866;28;20034;-84
2022/03/24 01:21:50;;;;;;;12.63;7.18;;;9.10;52.10;;;;;;2037502;28;20135;-84
2022/03/24 01:22:51;;;;;;;10.18;6.85;;;9.00;52.10;;;;;;2056501;28;20031;-84
2022/03/24 01:23:53;;;;;;;11.30;7.00;;;9.00;52.20;;;;;;2064835;28;20081;-84
2022/03/24 01:24:53;;;;;;;9.75;6.65;;;9.00;52.20;;;;;;2072626;28;20030;-84
2022/03/24 01:25:54;;;;;;;10.82;7.13;;;9.00;52.20;;;;;;2056835;28;20033;-84
2022/03/24 01:26:55;;;;;;;10.93;6.82;;;9.00;52.30;;;;;;2056612;28;20042;-84
2022/03/24 01:27:56;;;;;;;11.95;6.93;;;9.00;52.40;;;;;;2068517;28;20053;-84
2022/03/24 01:28:57;;;;;;;11.40;7.13;;;9.00;52.30;;;;;;2072471;28;20041;-84
2022/03/24 01:29:59;;;;;;;10.73;6.63;;;9.00;52.40;;;;;;2072153;28;20022;-84
2022/03/24 01:30:59;;;;;;;10.65;7.22;;;8.90;52.40;;;;;;2069712;28;20022;-84
2022/03/24 01:32:00;;;;;;;11.32;6.90;;;9.00;52.40;;;;;;2064089;28;20100;-85
2022/03/24 01:33:01;;;;;;;11.50;7.10;;;8.90;52.40;;;;;;2056690;28;20054;-84
2022/03/24 01:34:01;;;;;;;11.00;6.90;;;8.90;52.50;;;;;;2064780;28;20034;-84
2022/03/24 01:35:07;;;;;;;14.40;7.82;;;8.90;52.50;;;;;;2072202;28;20034;-84
2022/03/24 01:36:10;;;;;;;10.88;7.00;;;8.90;52.50;;;;;;2072777;28;20412;-84
2022/03/24 01:37:11;;;;;;;10.40;7.32;;;8.90;52.60;;;;;;2072110;28;20032;-85
2022/03/24 01:38:12;;;;;;;11.07;6.95;;;8.90;52.60;;;;;;2072863;28;20037;-84
2022/03/24 01:39:12;;;;;;;11.00;6.95;;;8.80;52.60;;;;;;2064658;28;20022;-84
2022/03/24 01:40:13;;;;;;;9.75;6.88;;;8.80;52.70;;;;;;2064780;28;20496;-84
2022/03/24 01:41:14;;;;;;;11.18;7.03;;;8.80;52.70;;;;;;2063352;28;20529;-84
2022/03/24 01:42:16;;;;;;;11.90;7.20;;;8.80;52.80;;;;;;2055503;28;20034;-84
2022/03/24 01:43:19;;;;;;;10.73;6.53;;;8.80;52.80;;;;;;2064573;28;20038;-84
2022/03/24 01:44:21;;;;;;;10.77;6.57;;;8.80;52.90;;;;;;2072826;28;20026;-84
2022/03/24 01:45:21;;;;;;;11.57;7.30;;;8.80;52.90;;;;;;2064491;28;20113;-84
2022/03/24 01:46:22;;;;;;;10.35;6.97;;;8.80;53.60;;;;;;2063907;28;20065;-84
2022/03/24 01:47:23;;;;;;;10.88;7.03;;;8.80;53.10;;;;;;2047829;28;20055;-84
2022/03/24 01:48:24;;;;;;;11.60;7.10;;;8.70;53.70;;;;;;2048340;28;20462;-85
2022/03/24 01:49:29;;;;;;;10.77;7.38;;;8.70;53.10;;;;;;2052297;28;20027;-84
2022/03/24 01:50:30;;;;;;;11.55;7.18;;;8.70;53.20;;;;;;2063350;28;20054;-84
2022/03/24 01:51:30;;;;;;;11.77;7.20;;;8.70;53.20;;;;;;2069539;28;20038;-84
2022/03/24 01:52:31;;;;;;;11.40;6.45;;;8.70;53.30;;;;;;2056138;28;20173;-84
2022/03/24 01:53:31;;;;;;;11.07;7.00;;;8.70;53.30;;;;;;2056749;28;20062;-84
2022/03/24 01:54:33;;;;;;;12.27;7.45;;;8.70;53.40;;;;;;2064716;28;20085;-84
2022/03/24 01:55:34;;;;;;;11.40;7.18;;;8.70;53.40;;;;;;2071779;28;20052;-84
2022/03/24 01:56:35;;;;;;;10.80;7.47;;;8.70;53.40;;;;;;2064545;28;20026;-84
2022/03/24 01:57:36;;;;;;;11.05;7.00;;;8.70;53.50;;;;;;2056661;28;20390;-84
2022/03/24 01:58:39;;;;;;;12.23;7.88;;;8.70;54.10;;;;;;2064193;28;20054;-84
2022/03/24 01:59:40;;;;;;;10.90;7.10;;;8.70;54.20;;;;;;2072844;28;20374;-84
2022/03/24 02:00:44;;;;;;;10.90;7.10;;;8.70;53.60;;;;;;2063672;28;20459;-84
2022/03/24 02:01:44;;;;;;;10.82;7.30;;;8.60;53.60;;;;;;2050819;28;20043;-86
2022/03/24 02:02:45;;;;;;;12.73;7.28;;;8.60;53.70;;;;;;2047763;28;20046;-86
2022/03/24 02:03:47;;;;;;;11.18;7.40;;;8.60;53.70;;;;;;2057117;28;20133;-86
2022/03/24 02:04:48;;;;;;;12.40;8.45;;;8.60;53.80;;;;;;2073264;28;20114;-86
2022/03/24 02:05:48;;;;;;;11.82;7.38;;;8.50;53.80;;;;;;2074129;28;20041;-86
2022/03/24 02:06:49;;;;;;;11.75;7.25;;;8.50;53.80;;;;;;2040931;29;20035;-86
2022/03/24 02:07:50;;;;;;;13.70;7.53;;;8.50;53.80;;;;;;2048579;28;20031;-86
2022/03/24 02:08:50;;;;;;;10.77;7.32;;;8.60;53.90;;;;;;2070627;28;20034;-87
2022/03/24 02:09:51;;;;;;;10.15;7.10;;;8.50;53.80;;;;;;2056615;28;20033;-86
2022/03/24 02:10:52;;;;;;;12.32;6.85;;;8.50;53.90;;;;;;2056690;28;20037;-86
2022/03/24 02:11:52;;;;;;;11.70;7.15;;;8.50;53.90;;;;;;2047090;29;20055;-86
2022/03/24 02:12:56;;;;;;;11.50;7.25;;;8.50;53.90;;;;;;2055763;28;20540;-86
2022/03/24 02:13:57;;;;;;;11.35;7.05;;;8.40;53.90;;;;;;2064478;28;20062;-87
2022/03/24 02:14:59;;;;;;;11.77;7.38;;;8.50;54.10;;;;;;2071797;28;20029;-86
2022/03/24 02:16:01;;;;;;;13.80;8.00;;;8.40;54.00;;;;;;2064239;28;20030;-86
2022/03/24 02:17:02;;;;;;;12.02;7.68;;;8.40;54.10;;;;;;2056516;28;20050;-86
2022/03/24 02:18:03;;;;;;;10.35;6.78;;;8.40;54.10;;;;;;2064113;28;20038;-86
2022/03/24 02:19:16;;;;;;;11.23;7.45;;;8.40;54.10;;;;;;2070216;28;20029;-86
2022/03/24 02:20:17;;;;;;;10.90;7.10;;;8.40;54.20;;;;;;2072924;28;20034;-86
2022/03/24 02:21:18;;;;;;;10.48;6.63;;;8.40;54.80;;;;;;2072534;28;20476;-86
2022/03/24 02:22:18;;;;;;;10.50;7.13;;;8.40;54.30;;;;;;2058832;28;20121;-86
2022/03/24 02:23:19;;;;;;;12.27;7.10;;;8.40;54.30;;;;;;2068696;28;20022;-87
2022/03/24 02:24:22;;;;;;;10.88;7.18;;;8.30;54.30;;;;;;2064647;28;20390;-86
2022/03/24 02:25:24;;;;;;;11.23;7.55;;;8.40;55.10;;;;;;2056936;28;20023;-86
2022/03/24 02:26:26;;;;;;;12.82;7.93;;;8.40;54.50;;;;;;2064608;28;20041;-86
2022/03/24 02:27:27;;;;;;;11.52;7.50;;;8.30;54.40;;;;;;2056242;28;20134;-86
2022/03/24 02:28:27;;;;;;;11.35;7.43;;;8.30;54.40;;;;;;2056728;28;20055;-86
2022/03/24 02:29:28;;;;;;;12.27;8.02;;;8.30;54.50;;;;;;2070384;28;20456;-86
2022/03/24 02:30:29;;;;;;;11.93;7.68;;;8.30;55.10;;;;;;2064495;28;20061;-86
2022/03/24 02:31:30;;;;;;;12.57;7.80;;;8.30;54.60;;;;;;2056542;28;20026;-87
2022/03/24 02:32:31;;;;;;;11.30;7.35;;;8.30;54.60;;;;;;2054478;28;20547;-86
2022/03/24 02:33:32;;;;;;;12.80;7.45;;;8.30;54.70;;;;;;2072428;28;20112;-86
2022/03/24 02:34:40;;;;;;;12.48;7.47;;;8.30;54.70;;;;;;2070875;28;20038;-86
2022/03/24 02:35:41;;;;;;;12.32;7.55;;;8.30;54.80;;;;;;2064990;28;20070;-86
2022/03/24 02:36:41;;;;;;;11.25;7.60;;;8.30;54.80;;;;;;2059439;28;20027;-87
2022/03/24 02:37:42;;;;;;;15.55;7.85;;;8.30;54.90;;;;;;2061394;28;20085;-86
2022/03/24 02:38:42;;;;;;;15.02;8.15;;;8.20;54.80;;;;;;2056603;28;20122;-87
2022/03/24 02:40:12;;;;;;;11.40;7.45;;;8.20;54.90;;;;;;2059811;28;20585;-86
2022/03/24 02:41:13;;;;;;;11.20;6.97;;;8.20;55.00;;;;;;2071379;28;20412;-86
2022/03/24 02:42:16;;;;;;;11.35;7.45;;;8.20;54.90;;;;;;2071948;28;20033;-86
2022/03/24 02:43:19;;;;;;;11.93;7.30;;;8.20;55.00;;;;;;2071693;28;20097;-86
2022/03/24 02:44:25;;;;;;;11.98;7.72;;;8.20;55.00;;;;;;2073037;28;20030;-86
2022/03/24 02:45:26;;;;;;;11.13;7.20;;;8.20;55.10;;;;;;2072550;28;20022;-86
2022/03/24 02:46:26;;;;;;;12.85;7.63;;;8.20;55.10;;;;;;2064588;28;20177;-86
2022/03/24 02:47:27;;;;;;;12.25;7.25;;;8.20;55.10;;;;;;2071986;28;20045;-86
2022/03/24 02:48:29;;;;;;;11.95;7.78;;;8.20;55.20;;;;;;2071654;28;20030;-86
2022/03/24 02:49:31;;;;;;;13.65;7.20;;;8.20;55.30;;;;;;2072522;28;20064;-86
2022/03/24 02:50:32;;;;;;;11.88;7.57;;;8.20;55.30;;;;;;2072172;28;20022;-86
2022/03/24 02:51:32;;;;;;;11.10;7.50;;;8.10;55.30;;;;;;2072215;28;20080;-86
2022/03/24 02:52:33;;;;;;;11.13;7.43;;;8.10;55.40;;;;;;2071051;28;20026;-86
2022/03/24 02:53:33;;;;;;;11.45;7.45;;;8.10;55.50;;;;;;2071204;28;20034;-86
2022/03/24 02:54:34;;;;;;;12.32;7.97;;;8.10;55.50;;;;;;2070700;28;20064;-87
2022/03/24 02:55:35;;;;;;;12.63;7.72;;;8.10;55.50;;;;;;2056752;28;20772;-86
2022/03/24 02:56:42;;;;;;;11.65;7.68;;;8.10;55.60;;;;;;2059438;28;20089;-86
2022/03/24 02:57:42;;;;;;;11.25;7.47;;;8.10;55.70;;;;;;2066094;28;20034;-86
2022/03/24 02:58:43;;;;;;;12.75;7.88;;;8.10;55.80;;;;;;2066890;28;20413;-86
2022/03/24 02:59:44;;;;;;;11.55;7.70;;;8.00;55.80;;;;;;2065949;28;20468;-86
2022/03/24 03:00:44;;;;;;;11.07;7.63;;;8.00;55.80;;;;;;2066035;28;20509;-87
2022/03/24 03:01:56;;;;;;;10.98;7.40;;;8.00;55.80;;;;;;2066730;28;20042;-86
2022/03/24 03:02:56;;;;;;;11.50;7.63;;;8.00;55.90;;;;;;2067351;28;20081;-86
2022/03/24 03:03:57;;;;;;;12.98;7.63;;;8.00;55.90;;;;;;2065194;28;20030;-85
2022/03/24 03:04:57;;;;;;;12.93;8.25;;;8.00;55.90;;;;;;2073592;28;20037;-86
2022/03/24 03:05:58;;;;;;;11.75;7.70;;;8.00;56.00;;;;;;2066380;28;20034;-86
2022/03/24 03:07:02;;;;;;;11.85;7.75;;;8.00;56.00;;;;;;2044220;28;20465;-86
2022/03/24 03:08:02;;;;;;;11.68;7.75;;;8.00;56.10;;;;;;2050660;28;20042;-86
2022/03/24 03:09:05;;;;;;;11.95;8.10;;;8.00;56.10;;;;;;2066055;28;20031;-86
2022/03/24 03:10:07;;;;;;;12.80;7.95;;;8.00;56.10;;;;;;2074033;28;20029;-86
2022/03/24 03:11:07;;;;;;;11.30;7.30;;;7.90;56.10;;;;;;2073591;28;20030;-86
2022/03/24 03:12:09;;;;;;;10.18;7.32;;;8.00;56.20;;;;;;2065761;28;20045;-86
2022/03/24 03:13:10;;;;;;;11.80;8.07;;;8.00;56.30;;;;;;2065207;28;20030;-86
2022/03/24 03:14:13;;;;;;;11.90;7.97;;;8.00;56.30;;;;;;2073887;28;20551;-86
2022/03/24 03:15:14;;;;;;;11.57;8.00;;;7.90;56.30;;;;;;2071582;28;20484;-86
2022/03/24 03:16:15;;;;;;;11.68;7.43;;;7.90;56.30;;;;;;2074073;28;20030;-86
2022/03/24 03:17:16;;;;;;;12.25;7.90;;;7.90;56.30;;;;;;2073139;28;20044;-86
2022/03/24 03:18:17;;;;;;;13.82;8.10;;;7.90;56.40;;;;;;2074622;28;20029;-86
2022/03/24 03:19:19;;;;;;;12.10;8.25;;;7.90;56.40;;;;;;2074004;28;20120;-86
2022/03/24 03:20:20;;;;;;;11.65;7.43;;;7.90;56.50;;;;;;2073893;28;20507;-86
2022/03/24 03:21:21;;;;;;;11.57;8.00;;;7.90;56.40;;;;;;2073100;28;20053;-86
2022/03/24 03:22:22;;;;;;;11.52;7.90;;;7.90;56.40;;;;;;2073920;28;20050;-86
2022/03/24 03:23:23;;;;;;;11.77;7.95;;;7.90;56.40;;;;;;2073455;28;20041;-86
2022/03/24 03:24:24;;;;;;;14.77;8.25;;;7.90;56.50;;;;;;2065564;28;20037;-86
2022/03/24 03:25:24;;;;;;;13.98;8.75;;;7.90;56.50;;;;;;2064365;28;20033;-86
2022/03/24 03:26:25;;;;;;;13.68;7.90;;;7.90;56.50;;;;;;2065687;28;20381;-86
2022/03/24 03:27:27;;;;;;;12.25;8.38;;;7.90;56.40;;;;;;2057551;28;20485;-86
2022/03/24 03:28:28;;;;;;;11.50;7.65;;;7.90;56.30;;;;;;2066076;28;20037;-86
2022/03/24 03:29:28;;;;;;;12.73;8.80;;;7.90;56.30;;;;;;2073907;28;20064;-86
2022/03/24 03:30:30;;;;;;;12.85;8.10;;;7.90;56.30;;;;;;2065754;28;20030;-86
2022/03/24 03:31:30;;;;;;;11.48;7.90;;;7.90;56.30;;;;;;2073902;28;20034;-86
2022/03/24 03:32:31;;;;;;;13.55;7.90;;;7.90;56.40;;;;;;2073984;28;20433;-86
2022/03/24 03:33:32;;;;;;;12.38;8.02;;;8.00;56.50;;;;;;2064707;28;20117;-86
2022/03/24 03:34:33;;;;;;;13.90;8.50;;;7.90;56.60;;;;;;2057720;28;20110;-86
2022/03/24 03:35:34;;;;;;;13.02;8.15;;;7.90;56.50;;;;;;2068778;28;20542;-86
2022/03/24 03:36:37;;;;;;;14.15;8.65;;;7.90;56.60;;;;;;2074175;28;20025;-86
2022/03/24 03:37:38;;;;;;;13.20;8.10;;;7.90;56.70;;;;;;2066379;28;20428;-86
2022/03/24 03:38:39;;;;;;;13.27;8.70;;;7.90;56.70;;;;;;2069022;28;20037;-86
2022/03/24 03:39:40;;;;;;;14.35;9.20;;;7.90;56.80;;;;;;2065502;28;20428;-86
2022/03/24 03:40:41;;;;;;;12.40;8.18;;;7.90;56.80;;;;;;2065725;28;20081;-86
2022/03/24 03:41:42;;;;;;;12.05;8.48;;;7.80;56.80;;;;;;2066202;28;20039;-86
2022/03/24 03:42:43;;;;;;;12.60;7.80;;;7.80;56.90;;;;;;2057723;28;20023;-86
2022/03/24 03:43:44;;;;;;;12.13;7.90;;;7.80;57.00;;;;;;2057750;28;20055;-86
2022/03/24 03:44:45;;;;;;;14.60;9.10;;;7.80;57.00;;;;;;2063383;28;20034;-86
2022/03/24 03:45:46;;;;;;;13.55;7.93;;;7.80;57.10;;;;;;2057416;28;20031;-86
2022/03/24 03:46:47;;;;;;;13.98;8.80;;;7.80;57.10;;;;;;2063936;28;20494;-86
2022/03/24 03:47:48;;;;;;;13.18;8.77;;;7.70;57.10;;;;;;2073856;28;20053;-86
2022/03/24 03:48:50;;;;;;;15.27;8.95;;;7.70;57.20;;;;;;2073307;28;20554;-86
2022/03/24 03:49:50;;;;;;;11.73;8.20;;;7.70;57.30;;;;;;2073762;28;20054;-86
2022/03/24 03:50:51;;;;;;;12.95;8.73;;;7.70;57.40;;;;;;2065598;28;20030;-86
2022/03/24 03:51:52;;;;;;;11.63;8.02;;;7.70;57.40;;;;;;2073444;28;20034;-86
2022/03/24 03:52:53;;;;;;;14.23;9.05;;;7.70;57.50;;;;;;2073857;28;20029;-86
2022/03/24 03:53:54;;;;;;;14.23;8.52;;;7.70;57.50;;;;;;2074164;28;20034;-86
2022/03/24 03:54:55;;;;;;;11.77;7.82;;;7.60;57.50;;;;;;2073896;28;20025;-86
2022/03/24 03:55:55;;;;;;;14.13;9.02;;;7.60;57.50;;;;;;2072491;28;20030;-87
2022/03/24 03:56:56;;;;;;;13.70;8.98;;;7.60;57.60;;;;;;2071835;28;20392;-87
2022/03/24 03:57:57;;;;;;;13.90;8.93;;;7.60;57.70;;;;;;2073954;28;20053;-86
2022/03/24 03:58:57;;;;;;;12.82;8.27;;;7.60;57.70;;;;;;2073576;28;20033;-86
2022/03/24 04:00:52;;;;;;;14.18;9.10;;;7.60;57.80;;;;;;2073567;28;20033;-86
2022/03/24 04:01:18;;;;;;;12.80;8.50;;;7.50;57.80;;;;;;2073391;28;20030;-86
2022/03/24 04:02:19;;;;;;;13.10;8.57;;;7.50;57.80;;;;;;2074034;28;20492;-86
2022/03/24 04:03:20;;;;;;;14.02;8.30;;;7.50;57.90;;;;;;2073777;28;20429;-86
2022/03/24 04:04:21;;;;;;;13.25;8.55;;;7.50;58.00;;;;;;2074300;28;20137;-86
2022/03/24 04:05:25;;;;;;;13.63;8.43;;;7.50;58.00;;;;;;2073722;28;20492;-86
2022/03/24 04:06:26;;;;;;;12.68;8.52;;;7.50;58.10;;;;;;2067545;28;20034;-86
2022/03/24 04:07:26;;;;;;;13.25;8.45;;;7.40;58.10;;;;;;2067534;28;20022;-85
2022/03/24 04:08:31;;;;;;;13.00;8.43;;;7.40;58.10;;;;;;2065613;28;20065;-86
2022/03/24 04:09:31;;;;;;;13.18;8.35;;;7.40;58.20;;;;;;2071616;28;20018;-86
2022/03/24 04:10:32;;;;;;;13.25;8.43;;;7.40;58.20;;;;;;2067837;28;20034;-86
2022/03/24 04:11:35;;;;;;;12.25;8.07;;;7.40;58.30;;;;;;2057147;28;20030;-86
2022/03/24 04:12:36;;;;;;;12.27;8.30;;;7.40;58.30;;;;;;2050983;28;20070;-86
2022/03/24 04:13:39;;;;;;;13.02;8.82;;;7.40;58.40;;;;;;2065411;28;20030;-86
2022/03/24 04:14:40;;;;;;;12.85;8.30;;;7.40;58.40;;;;;;2062570;28;20033;-86
2022/03/24 04:15:41;;;;;;;13.77;8.82;;;7.40;58.50;;;;;;2069545;28;20117;-86
2022/03/24 04:16:41;;;;;;;13.45;8.60;;;7.40;58.50;;;;;;2065052;28;20034;-86
2022/03/24 04:17:42;;;;;;;13.05;8.38;;;7.40;58.60;;;;;;2049433;28;20510;-86
2022/03/24 04:18:45;;;;;;;13.88;9.02;;;7.40;58.60;;;;;;2065301;28;20026;-87
2022/03/24 04:19:46;;;;;;;14.52;8.88;;;7.40;58.70;;;;;;2072365;28;20026;-86
2022/03/24 04:20:47;;;;;;;12.02;8.13;;;7.40;58.70;;;;;;2065379;28;20038;-86
2022/03/24 04:21:47;;;;;;;12.82;8.70;;;7.30;58.80;;;;;;2049282;29;20522;-86
2022/03/24 04:22:50;;;;;;;11.90;8.40;;;7.30;58.80;;;;;;2062048;28;20134;-86
2022/03/24 04:23:51;;;;;;;12.02;7.93;;;7.30;58.90;;;;;;2073392;28;20028;-86
2022/03/24 04:24:52;;;;;;;13.70;9.35;;;7.30;59.50;;;;;;2074078;28;20038;-86
2022/03/24 04:25:52;;;;;;;14.13;9.23;;;7.30;59.00;;;;;;2073370;28;20033;-86
2022/03/24 04:26:53;;;;;;;14.43;8.90;;;7.30;59.00;;;;;;2073463;28;20037;-86
2022/03/24 04:27:54;;;;;;;13.50;8.75;;;7.30;59.00;;;;;;2073373;28;20401;-86
2022/03/24 04:28:54;;;;;;;12.80;8.80;;;7.30;59.10;;;;;;2063384;28;20039;-86
2022/03/24 04:29:55;;;;;;;13.40;8.65;;;7.30;59.10;;;;;;2064882;28;20520;-86
2022/03/24 04:30:56;;;;;;;12.95;8.80;;;7.30;59.20;;;;;;2065981;28;20045;-86
2022/03/24 04:31:57;;;;;;;13.27;8.90;;;7.20;59.10;;;;;;2070358;28;20409;-86
2022/03/24 04:32:58;;;;;;;13.20;9.10;;;7.20;59.10;;;;;;2073956;28;20057;-86
2022/03/24 04:33:58;;;;;;;13.93;9.15;;;7.20;59.20;;;;;;2073472;28;20025;-86
2022/03/24 04:34:59;;;;;;;12.70;8.50;;;7.20;59.80;;;;;;2065139;28;20038;-86
2022/03/24 04:36:00;;;;;;;13.05;8.63;;;7.20;59.20;;;;;;2072652;28;20536;-86
2022/03/24 04:37:02;;;;;;;12.95;8.32;;;7.20;59.20;;;;;;2073664;28;20053;-86
2022/03/24 04:38:04;;;;;;;14.20;9.20;;;7.20;59.30;;;;;;2072410;28;20026;-86
2022/03/24 04:39:04;;;;;;;13.18;8.88;;;7.20;59.20;;;;;;2062670;28;20030;-86
2022/03/24 04:40:06;;;;;;;13.10;8.68;;;7.20;59.20;;;;;;2071106;28;20068;-85
2022/03/24 04:41:07;;;;;;;13.82;8.90;;;7.20;59.30;;;;;;2073118;28;20123;-86
2022/03/24 04:42:08;;;;;;;13.15;8.73;;;7.20;59.30;;;;;;2064447;28;20030;-86
2022/03/24 04:43:09;;;;;;;14.73;9.18;;;7.20;59.30;;;;;;2065256;28;20168;-86
2022/03/24 04:44:09;;;;;;;13.55;9.23;;;7.20;59.40;;;;;;2066788;28;20398;-86
2022/03/24 04:45:10;;;;;;;13.38;9.23;;;7.20;59.40;;;;;;2073250;28;20099;-86
2022/03/24 04:46:11;;;;;;;13.75;9.23;;;7.20;59.50;;;;;;2073400;28;20084;-86
2022/03/24 04:47:14;;;;;;;14.55;9.27;;;7.20;59.60;;;;;;2064055;28;20065;-86
2022/03/24 04:48:15;;;;;;;13.10;9.35;;;7.10;59.50;;;;;;2072908;28;20512;-86
2022/03/24 04:49:16;;;;;;;13.38;9.00;;;7.10;59.50;;;;;;2065608;28;20475;-85
2022/03/24 04:50:17;;;;;;;12.75;8.98;;;7.10;59.60;;;;;;2072042;28;20022;-86
2022/03/24 04:51:18;;;;;;;13.88;9.43;;;7.10;59.60;;;;;;2073052;28;20520;-86
2022/03/24 04:52:19;;;;;;;13.85;8.95;;;7.10;59.60;;;;;;2073269;28;20088;-85
2022/03/24 04:53:19;;;;;;;12.90;8.77;;;7.10;60.30;;;;;;2064845;28;20065;-86
2022/03/24 04:54:20;;;;;;;14.05;9.45;;;7.10;59.80;;;;;;2073167;28;20034;-86
2022/03/24 04:55:21;;;;;;;13.05;8.77;;;7.10;59.90;;;;;;2081288;28;20021;-86
2022/03/24 04:56:21;;;;;;;13.82;9.02;;;7.10;59.90;;;;;;2073249;28;20058;-86
2022/03/24 04:57:22;;;;;;;13.25;9.07;;;7.00;59.90;;;;;;2072981;28;20030;-86
2022/03/24 04:58:23;;;;;;;12.48;8.50;;;7.00;59.90;;;;;;2073258;28;20030;-86
2022/03/24 04:59:23;;;;;;;13.98;9.15;;;7.10;60.10;;;;;;2069171;28;20052;-86
2022/03/24 05:00:24;;;;;;;13.13;8.95;;;7.00;60.10;;;;;;2069372;28;20510;-86
2022/03/24 05:01:25;;;;;;;13.25;8.70;;;7.00;60.10;;;;;;2073607;28;20132;-86
2022/03/24 05:02:26;;;;;;;13.90;9.20;;;7.00;60.10;;;;;;2073135;28;20030;-86
2022/03/24 05:03:28;;;;;;;13.07;9.00;;;7.00;60.20;;;;;;2073051;28;20030;-86
2022/03/24 05:04:28;;;;;;;15.55;9.15;;;6.90;60.20;;;;;;2064659;28;20125;-86
2022/03/24 05:05:30;;;;;;;14.18;9.43;;;6.90;60.20;;;;;;2071556;28;20021;-86
2022/03/24 05:06:31;;;;;;;13.48;8.93;;;6.90;60.30;;;;;;2064986;28;20088;-86
2022/03/24 05:07:32;;;;;;;14.00;9.23;;;6.90;60.30;;;;;;2061952;28;20026;-86
2022/03/24 05:08:33;;;;;;;13.73;9.32;;;6.90;60.40;;;;;;2057097;28;20054;-86
2022/03/24 05:09:33;;;;;;;12.88;8.90;;;6.80;60.40;;;;;;2067503;28;20065;-86
2022/03/24 05:10:34;;;;;;;13.93;9.07;;;6.80;60.40;;;;;;2062763;28;20038;-86
2022/03/24 05:11:35;;;;;;;12.88;8.93;;;6.80;60.50;;;;;;2049612;28;20473;-86
2022/03/24 05:12:38;;;;;;;13.80;8.93;;;6.80;60.50;;;;;;2056892;28;20063;-86
2022/03/24 05:13:38;;;;;;;13.00;8.48;;;6.80;60.50;;;;;;2065015;28;20026;-86
2022/03/24 05:14:39;;;;;;;12.52;8.23;;;6.80;60.50;;;;;;2056711;28;20378;-86
2022/03/24 05:15:40;;;;;;;13.15;9.25;;;6.80;60.50;;;;;;2065003;28;20066;-86
2022/03/24 05:16:41;;;;;;;14.90;9.30;;;6.80;60.50;;;;;;2068265;28;20022;-86
2022/03/24 05:17:41;;;;;;;13.40;9.00;;;6.80;60.60;;;;;;2072999;28;20030;-86
2022/03/24 05:18:42;;;;;;;14.65;9.52;;;6.80;60.60;;;;;;2072499;28;20026;-86
2022/03/24 05:19:48;;;;;;;12.63;8.82;;;6.80;60.60;;;;;;2073046;28;20117;-86